Time;durP1;ratioP1;P1;durP2;ratioP2;P2;SDS_P1;SDS_P2;PMS_P1;PMS_P2;Temp;Humidity;BMP_temperature;BMP_pressure;BME280_temperature;BME280_humidity;BME280_pressure;Samples;Min_cycle;Max_cycle;Signal;HPM_P1;HPM_P2
2022/01/30 00:01:21;;;;;;;4.82;4.00;;;23.10;66.30;;;;;;6174190;28;89122;-69
2022/01/30 00:04:23;;;;;;;5.25;3.95;;;23.10;66.30;;;;;;6177453;28;89057;-70
2022/01/30 00:07:27;;;;;;;5.20;3.60;;;23.10;66.50;;;;;;6170112;28;89969;-70
2022/01/30 00:10:30;;;;;;;5.15;3.78;;;23.00;66.40;;;;;;6171479;28;88947;-69
2022/01/30 00:13:33;;;;;;;6.82;4.25;;;23.10;66.30;;;;;;6160530;28;89117;-70
2022/01/30 00:16:37;;;;;;;5.40;3.85;;;23.00;66.40;;;;;;6169920;28;88932;-70
2022/01/30 00:19:43;;;;;;;7.00;3.60;;;23.10;66.50;;;;;;6179946;28;89320;-70
2022/01/30 00:22:52;;;;;;;4.10;3.35;;;23.10;66.40;;;;;;6184481;28;89153;-69
2022/01/30 00:25:56;;;;;;;5.28;3.33;;;23.00;66.10;;;;;;6171828;28;89427;-70
2022/01/30 00:28:59;;;;;;;4.03;3.00;;;23.10;66.10;;;;;;6162892;28;87173;-69
2022/01/30 00:32:01;;;;;;;3.65;3.03;;;23.00;65.90;;;;;;6180129;28;88979;-69
2022/01/30 00:35:03;;;;;;;6.63;3.10;;;23.00;65.90;;;;;;6183536;28;89138;-69
2022/01/30 00:38:10;;;;;;;4.63;3.22;;;23.00;66.00;;;;;;6180811;28;90075;-71
2022/01/30 00:45:49;;;;;;;4.28;3.20;;;23.00;66.20;;;;;;6176788;28;88894;-70
2022/01/30 00:48:51;;;;;;;3.88;2.75;;;23.00;66.20;;;;;;6196806;28;87997;-70
2022/01/30 00:51:54;;;;;;;5.07;2.70;;;23.00;66.10;;;;;;6165000;28;89121;-70
2022/01/30 00:54:57;;;;;;;5.28;2.97;;;22.90;65.80;;;;;;6187784;28;89069;-71
2022/01/30 00:58:01;;;;;;;6.25;2.75;;;23.00;66.00;;;;;;6185677;28;89051;-71
2022/01/30 01:01:03;;;;;;;3.60;2.60;;;22.90;65.70;;;;;;6178801;28;88526;-70
2022/01/30 01:04:05;;;;;;;5.35;2.72;;;22.90;65.70;;;;;;6183840;28;88949;-71
2022/01/30 01:07:12;;;;;;;2.90;2.42;;;22.90;65.70;;;;;;6186339;28;88025;-71
2022/01/30 01:10:26;;;;;;;2.85;2.38;;;22.90;65.70;;;;;;6194504;28;89932;-71
2022/01/30 01:23:28;;;;;;;3.75;2.30;;;22.90;65.60;;;;;;6190890;28;87955;-70
2022/01/30 01:26:32;;;;;;;4.07;2.15;;;22.90;65.50;;;;;;6196481;28;89228;-71
2022/01/30 01:29:34;;;;;;;4.75;2.28;;;22.80;65.40;;;;;;6171685;28;89067;-70
2022/01/30 01:32:36;;;;;;;3.13;1.80;;;22.80;65.40;;;;;;6182647;28;88544;-71
2022/01/30 01:35:38;;;;;;;3.67;2.13;;;22.80;65.30;;;;;;6168894;28;88961;-70
2022/01/30 01:38:40;;;;;;;3.10;2.20;;;22.80;65.20;;;;;;6172668;28;89104;-70
2022/01/30 01:41:44;;;;;;;3.72;1.73;;;22.80;65.00;;;;;;6180345;28;90055;-70
2022/01/30 01:44:49;;;;;;;2.67;1.80;;;22.80;65.00;;;;;;6173896;28;88193;-70
2022/01/30 01:47:51;;;;;;;4.30;2.17;;;22.80;65.00;;;;;;6172907;28;89163;-70
2022/01/30 01:50:54;;;;;;;3.97;2.00;;;22.70;65.00;;;;;;6183145;28;89123;-71
2022/01/30 01:53:58;;;;;;;1.90;1.70;;;22.80;65.10;;;;;;6184195;28;89460;-70
2022/01/30 01:57:03;;;;;;;2.10;1.80;;;22.70;65.00;;;;;;6183234;28;89047;-69
2022/01/30 02:00:06;;;;;;;2.88;2.00;;;22.70;64.90;;;;;;6182607;28;89067;-70
2022/01/30 02:03:10;;;;;;;2.08;1.70;;;22.70;65.00;;;;;;6182521;28;87226;-70
2022/01/30 02:06:16;;;;;;;3.45;1.60;;;22.70;64.90;;;;;;6179871;28;89094;-71
2022/01/30 02:09:18;;;;;;;1.80;1.60;;;22.70;65.00;;;;;;6180981;28;89068;-71
2022/01/30 02:12:28;;;;;;;1.83;1.58;;;22.70;65.00;;;;;;6174144;28;89859;-70
2022/01/30 02:23:55;;;;;;;2.55;1.38;;;22.60;64.90;;;;;;6180922;28;89256;-70
2022/01/30 02:25:57;;;;;;;2.00;1.60;;;22.60;65.00;;;;;;6183658;28;87516;-70
2022/01/30 02:28:59;;;;;;;1.58;1.30;;;22.60;65.00;;;;;;6183569;28;89115;-70
2022/01/30 02:32:02;;;;;;;2.45;1.40;;;22.60;65.00;;;;;;6177352;28;87980;-71
2022/01/30 02:35:04;;;;;;;1.88;1.38;;;22.60;64.90;;;;;;6171770;28;88418;-71
2022/01/30 02:38:08;;;;;;;2.58;1.50;;;22.60;64.90;;;;;;6194847;28;89098;-70
2022/01/30 02:41:10;;;;;;;1.63;1.38;;;22.60;65.00;;;;;;6173213;28;89103;-71
2022/01/30 02:44:17;;;;;;;1.48;1.30;;;22.50;64.80;;;;;;6170586;28;89998;-70
2022/01/30 02:47:40;;;;;;;1.52;1.42;;;22.50;64.80;;;;;;6182935;28;87871;-71
2022/01/30 02:50:54;;;;;;;1.92;1.50;;;22.50;64.90;;;;;;6181679;28;88217;-71
2022/01/30 02:54:03;;;;;;;2.33;1.50;;;22.50;64.90;;;;;;6177705;28;89237;-70
2022/01/30 02:57:05;;;;;;;1.55;1.42;;;22.50;64.80;;;;;;6180552;28;89277;-71
2022/01/30 03:00:10;;;;;;;1.63;1.40;;;22.50;64.80;;;;;;6186981;28;89116;-71
2022/01/30 03:03:12;;;;;;;2.03;1.30;;;22.50;64.80;;;;;;6173500;28;89129;-71
2022/01/30 03:06:14;;;;;;;1.55;1.40;;;22.50;64.90;;;;;;6184072;28;87575;-71
2022/01/30 03:09:18;;;;;;;1.45;1.30;;;22.40;64.90;;;;;;6185665;28;88748;-71
2022/01/30 03:12:21;;;;;;;2.42;1.40;;;22.40;64.90;;;;;;6179902;28;89124;-71
2022/01/30 03:15:23;;;;;;;1.25;1.15;;;22.40;64.90;;;;;;6176428;28;90122;-70
2022/01/30 03:18:25;;;;;;;1.42;1.30;;;22.40;64.80;;;;;;6180391;28;89050;-71
2022/01/30 03:21:27;;;;;;;1.35;1.20;;;22.40;64.90;;;;;;6174888;28;89451;-71
2022/01/30 03:24:34;;;;;;;3.88;1.50;;;22.40;64.80;;;;;;6182159;28;89057;-70
2022/01/30 03:27:36;;;;;;;1.80;1.30;;;22.40;64.80;;;;;;6179119;28;89141;-71
2022/01/30 03:30:38;;;;;;;1.45;1.23;;;22.40;64.60;;;;;;6181847;28;89198;-71
2022/01/30 03:33:41;;;;;;;1.60;1.30;;;22.40;64.70;;;;;;6182788;28;89216;-71
2022/01/30 03:36:42;;;;;;;1.55;1.30;;;22.30;64.50;;;;;;6183857;28;88308;-71
2022/01/30 03:39:46;;;;;;;1.63;1.17;;;22.40;64.70;;;;;;6182599;28;89263;-71
2022/01/30 03:42:48;;;;;;;1.10;1.00;;;22.30;64.70;;;;;;6196485;28;89114;-71
2022/01/30 03:45:50;;;;;;;1.63;1.25;;;22.30;64.70;;;;;;6169116;28;88953;-71
2022/01/30 03:48:52;;;;;;;1.27;1.10;;;22.30;64.50;;;;;;6183307;28;87845;-71
2022/01/30 03:51:54;;;;;;;2.08;1.00;;;22.30;64.70;;;;;;6170730;28;89435;-71
2022/01/30 03:54:58;;;;;;;4.28;1.25;;;22.30;64.60;;;;;;6181722;28;89276;-71
2022/01/30 03:58:00;;;;;;;1.38;1.20;;;22.30;64.50;;;;;;6180962;28;89095;-71
2022/01/30 04:01:02;;;;;;;1.20;0.90;;;22.30;64.90;;;;;;6170591;28;88990;-70
2022/01/30 04:04:04;;;;;;;1.98;1.33;;;22.20;65.00;;;;;;6166943;28;89094;-71
2022/01/30 04:07:07;;;;;;;1.67;1.02;;;22.20;64.90;;;;;;6174327;28;88329;-72
2022/01/30 04:10:12;;;;;;;1.17;1.00;;;22.20;64.80;;;;;;6165088;28;89087;-72
2022/01/30 04:13:14;;;;;;;1.10;1.00;;;22.20;64.70;;;;;;6187320;28;88001;-71
2022/01/30 04:16:17;;;;;;;1.55;1.13;;;22.20;64.70;;;;;;6187025;28;89202;-70
2022/01/30 04:19:19;;;;;;;2.28;1.10;;;22.20;64.50;;;;;;6174477;28;89142;-72
2022/01/30 04:22:21;;;;;;;1.17;0.90;;;22.20;64.50;;;;;;6182657;28;89406;-71
2022/01/30 04:25:25;;;;;;;1.50;0.90;;;22.20;64.50;;;;;;6184272;28;88999;-70
2022/01/30 04:28:27;;;;;;;3.28;1.10;;;22.20;64.40;;;;;;6184557;28;88955;-71
2022/01/30 04:31:30;;;;;;;1.13;0.90;;;22.20;64.40;;;;;;6175312;28;89158;-70
2022/01/30 04:34:32;;;;;;;1.40;1.13;;;22.20;64.40;;;;;;6185684;28;89869;-71
2022/01/30 04:37:49;;;;;;;2.47;1.10;;;22.20;64.20;;;;;;6173759;28;88748;-70
2022/01/30 04:57:54;;;;;;;1.50;1.00;;;22.30;63.70;;;;;;6163408;28;87056;-71
2022/01/30 05:01:05;;;;;;;1.70;0.98;;;22.30;63.50;;;;;;6185284;28;89264;-70
2022/01/30 05:04:21;;;;;;;1.10;0.85;;;22.30;64.40;;;;;;6185844;28;88994;-71
2022/01/30 05:07:28;;;;;;;1.52;0.80;;;22.40;63.30;;;;;;6185606;28;89151;-71
2022/01/30 05:10:31;;;;;;;1.42;0.80;;;22.40;63.30;;;;;;6196997;28;88442;-71
2022/01/30 05:13:38;;;;;;;1.02;0.93;;;22.40;63.10;;;;;;6179972;28;88099;-71
2022/01/30 05:16:40;;;;;;;1.05;0.95;;;22.40;63.00;;;;;;6183694;28;89115;-71
2022/01/30 05:19:43;;;;;;;1.08;0.85;;;22.50;63.00;;;;;;6182946;28;90123;-71
2022/01/30 05:22:45;;;;;;;1.35;0.85;;;22.50;63.00;;;;;;6183064;28;87975;-71
2022/01/30 05:25:49;;;;;;;0.80;0.80;;;22.50;63.00;;;;;;6182257;28;88987;-71
2022/01/30 05:28:53;;;;;;;0.77;0.70;;;22.50;63.00;;;;;;6185316;28;87990;-70
2022/01/30 05:31:55;;;;;;;1.40;0.90;;;22.50;63.00;;;;;;6182810;28;89164;-70
2022/01/30 05:34:58;;;;;;;2.03;0.80;;;22.50;63.00;;;;;;6175030;28;89127;-70
2022/01/30 05:38:00;;;;;;;1.08;0.98;;;22.50;62.80;;;;;;6183856;28;89011;-70
2022/01/30 05:41:03;;;;;;;1.10;1.00;;;22.60;62.90;;;;;;6178451;28;88348;-70
2022/01/30 05:44:11;;;;;;;1.00;0.90;;;22.60;62.90;;;;;;6181245;28;89424;-71
2022/01/30 05:47:21;;;;;;;1.20;1.10;;;22.60;62.80;;;;;;6175850;28;89139;-69
2022/01/30 05:50:24;;;;;;;1.20;1.02;;;22.50;62.80;;;;;;6165623;28;90356;-71
2022/01/30 05:53:26;;;;;;;1.38;1.13;;;22.60;62.90;;;;;;6181245;28;89142;-70
2022/01/30 05:56:27;;;;;;;2.53;1.20;;;22.60;62.80;;;;;;6171210;28;89082;-71
2022/01/30 05:59:31;;;;;;;1.45;1.23;;;22.60;62.80;;;;;;6182253;28;88114;-70
2022/01/30 06:02:33;;;;;;;1.33;1.23;;;22.60;62.80;;;;;;6171530;28;87970;-70
2022/01/30 06:05:35;;;;;;;1.17;1.08;;;22.60;62.90;;;;;;6182674;28;89032;-71
2022/01/30 06:08:43;;;;;;;1.30;1.20;;;22.60;62.80;;;;;;6193833;28;89163;-70
2022/01/30 06:11:47;;;;;;;1.30;1.20;;;22.60;62.80;;;;;;6175467;28;88379;-71
2022/01/30 06:14:51;;;;;;;1.50;1.20;;;22.60;62.90;;;;;;6185294;28;89062;-70
2022/01/30 06:17:53;;;;;;;1.73;1.10;;;22.60;62.90;;;;;;6169169;28;88916;-70
2022/01/30 06:20:55;;;;;;;1.30;1.20;;;22.70;62.90;;;;;;6183493;28;89943;-71
2022/01/30 06:23:57;;;;;;;1.40;1.20;;;22.70;62.80;;;;;;6184251;28;89161;-70
2022/01/30 06:26:59;;;;;;;1.40;1.30;;;22.70;62.80;;;;;;6182932;28;89093;-70
2022/01/30 06:30:04;;;;;;;1.20;1.10;;;22.70;62.80;;;;;;6172488;28;89327;-70
2022/01/30 06:33:06;;;;;;;1.40;1.30;;;22.70;62.80;;;;;;6159597;28;87961;-71
2022/01/30 06:36:08;;;;;;;1.50;1.10;;;22.70;62.80;;;;;;6171255;28;89062;-71
2022/01/30 06:39:11;;;;;;;1.40;1.30;;;22.70;62.80;;;;;;6187317;28;88011;-70
2022/01/30 06:42:13;;;;;;;1.20;1.10;;;22.60;62.70;;;;;;6173099;28;88516;-71
2022/01/30 06:45:18;;;;;;;1.10;1.00;;;22.70;62.70;;;;;;6164514;28;89131;-70
2022/01/30 06:48:21;;;;;;;1.38;1.00;;;22.70;62.80;;;;;;6169745;28;89205;-71
2022/01/30 06:51:22;;;;;;;1.10;1.00;;;22.70;62.70;;;;;;6188445;28;90006;-71
2022/01/30 06:54:25;;;;;;;1.20;1.10;;;22.70;62.70;;;;;;6174280;28;90093;-70
2022/01/30 06:57:27;;;;;;;1.33;1.20;;;22.70;62.70;;;;;;6183778;28;89257;-71
2022/01/30 07:00:30;;;;;;;1.70;1.30;;;22.70;62.70;;;;;;6184226;28;87976;-70
2022/01/30 07:03:32;;;;;;;1.42;1.30;;;22.70;62.60;;;;;;6177158;28;89044;-70
2022/01/30 07:06:34;;;;;;;1.58;1.30;;;22.70;62.50;;;;;;6177126;28;89095;-69
2022/01/30 07:09:36;;;;;;;1.50;1.20;;;22.70;62.50;;;;;;6170618;28;89108;-68
2022/01/30 07:12:38;;;;;;;1.25;1.10;;;22.70;62.50;;;;;;6169629;28;88556;-69
2022/01/30 07:15:42;;;;;;;1.55;1.35;;;22.70;62.50;;;;;;6184261;28;88196;-68
2022/01/30 07:18:44;;;;;;;1.48;1.38;;;22.70;62.50;;;;;;6182905;28;88909;-69
2022/01/30 07:21:46;;;;;;;1.45;1.35;;;22.70;62.40;;;;;;6179846;28;90005;-68
2022/01/30 07:24:48;;;;;;;1.55;1.40;;;22.70;62.40;;;;;;6180287;28;89187;-71
2022/01/30 07:27:50;;;;;;;1.20;1.10;;;22.70;62.30;;;;;;6184092;28;87984;-71
2022/01/30 07:30:53;;;;;;;1.70;1.27;;;22.70;62.30;;;;;;6169978;28;89083;-72
2022/01/30 07:33:55;;;;;;;1.65;1.33;;;22.70;62.40;;;;;;6168904;28;89120;-68
2022/01/30 07:36:58;;;;;;;1.45;1.30;;;22.80;62.40;;;;;;6174714;28;88334;-71
2022/01/30 07:40:01;;;;;;;1.48;1.38;;;22.80;62.40;;;;;;6177675;28;89305;-71
2022/01/30 07:43:04;;;;;;;1.40;1.30;;;22.70;62.30;;;;;;6193903;28;87509;-72
2022/01/30 07:46:07;;;;;;;1.42;1.33;;;22.80;62.50;;;;;;6171767;28;89154;-71
2022/01/30 07:49:09;;;;;;;1.40;1.13;;;22.80;62.50;;;;;;6182305;28;88052;-72
2022/01/30 07:52:11;;;;;;;1.65;1.30;;;22.80;62.50;;;;;;6173666;28;89996;-72
2022/01/30 07:55:13;;;;;;;1.55;1.45;;;22.80;62.60;;;;;;6181038;28;89137;-72
2022/01/30 07:58:15;;;;;;;1.52;1.33;;;22.80;62.50;;;;;;6169230;28;88399;-71
2022/01/30 08:01:18;;;;;;;1.55;1.20;;;22.80;62.50;;;;;;6165730;28;89060;-72
2022/01/30 08:04:20;;;;;;;1.38;1.20;;;22.80;62.50;;;;;;6167494;28;89056;-72
2022/01/30 08:07:22;;;;;;;1.35;1.10;;;22.80;62.50;;;;;;6163932;28;89164;-72
2022/01/30 08:10:24;;;;;;;1.30;1.20;;;22.80;62.70;;;;;;6163435;28;88997;-72
2022/01/30 08:13:26;;;;;;;1.70;1.25;;;22.80;62.80;;;;;;6173907;28;88415;-72
2022/01/30 08:16:30;;;;;;;1.83;1.40;;;22.80;62.80;;;;;;6174603;28;89123;-71
2022/01/30 08:19:32;;;;;;;1.42;1.10;;;22.80;62.60;;;;;;6172268;28;88029;-72
2022/01/30 08:22:46;;;;;;;2.00;1.10;;;22.80;62.70;;;;;;6174032;28;90156;-71
2022/01/30 08:25:48;;;;;;;1.42;1.23;;;22.80;62.80;;;;;;6161552;28;89047;-73
2022/01/30 08:28:50;;;;;;;1.63;1.40;;;22.80;62.80;;;;;;6165430;28;89050;-71
2022/01/30 08:31:55;;;;;;;1.73;1.30;;;22.80;62.80;;;;;;6168599;28;89210;-72
2022/01/30 08:34:57;;;;;;;1.40;1.20;;;22.80;62.70;;;;;;6170284;28;90305;-72
2022/01/30 08:38:00;;;;;;;1.40;1.15;;;22.80;62.80;;;;;;6166111;28;88968;-72
2022/01/30 08:41:02;;;;;;;1.73;1.30;;;22.80;62.90;;;;;;6173333;28;89036;-69
2022/01/30 08:44:04;;;;;;;1.77;1.30;;;22.80;62.80;;;;;;6175133;28;88350;-70
2022/01/30 08:47:08;;;;;;;2.47;1.40;;;22.80;62.70;;;;;;6176711;28;89140;-70
2022/01/30 08:50:12;;;;;;;1.20;1.10;;;22.80;62.70;;;;;;6176294;28;89113;-69
2022/01/30 08:53:16;;;;;;;1.95;1.10;;;22.80;62.70;;;;;;6165580;28;90032;-69
2022/01/30 08:56:21;;;;;;;1.60;1.33;;;22.80;62.70;;;;;;6163387;28;87954;-69
2022/01/30 08:59:23;;;;;;;2.10;1.20;;;22.80;62.70;;;;;;6185238;28;91373;-70
2022/01/30 09:05:46;;;;;;;2.13;1.30;;;22.90;63.30;;;;;;6160532;28;87895;-72
2022/01/30 09:08:48;;;;;;;2.75;1.30;;;22.90;63.70;;;;;;6174084;28;89656;-71
2022/01/30 09:11:50;;;;;;;1.42;1.10;;;22.90;64.20;;;;;;6160269;28;89071;-71
2022/01/30 09:14:53;;;;;;;1.30;1.00;;;22.90;63.70;;;;;;6161236;28;88689;-73
2022/01/30 09:17:58;;;;;;;2.50;1.40;;;22.90;63.80;;;;;;6168797;28;89354;-75
2022/01/30 09:20:59;;;;;;;2.28;1.25;;;22.90;63.80;;;;;;6182907;28;89096;-72
2022/01/30 09:24:01;;;;;;;2.58;1.30;;;23.00;64.00;;;;;;6179943;28;89967;-74
2022/01/30 09:27:04;;;;;;;2.25;1.25;;;23.00;63.90;;;;;;6174935;28;89235;-74
2022/01/30 09:30:08;;;;;;;1.90;1.33;;;23.00;64.00;;;;;;6167162;28;89124;-75
2022/01/30 09:33:11;;;;;;;1.83;1.50;;;23.00;64.00;;;;;;6183210;28;87820;-74
2022/01/30 09:36:14;;;;;;;2.70;1.60;;;23.00;64.00;;;;;;6187173;28;90476;-73
2022/01/30 09:39:15;;;;;;;425.25;131.18;;;23.00;64.30;;;;;;6171286;28;89314;-75
2022/01/30 09:42:18;;;;;;;1332.70;900.75;;;23.10;75.60;;;;;;6196659;28;89039;-72
2022/01/30 09:45:22;;;;;;;377.45;224.52;;;23.10;75.70;;;;;;6168421;28;88389;-73
2022/01/30 09:48:25;;;;;;;141.13;89.93;;;23.10;75.80;;;;;;6168856;28;89058;-71
2022/01/30 09:51:27;;;;;;;101.45;53.78;;;23.10;70.10;;;;;;6169675;28;89086;-71
2022/01/30 09:54:29;;;;;;;71.90;42.17;;;23.10;67.60;;;;;;6181806;28;90036;-72
2022/01/30 09:57:32;;;;;;;64.25;36.75;;;23.10;66.20;;;;;;6173573;28;89273;-72
2022/01/30 10:00:34;;;;;;;51.67;30.40;;;23.10;65.90;;;;;;6178797;28;89116;-71
2022/01/30 10:03:37;;;;;;;45.75;27.75;;;23.10;66.60;;;;;;6173153;28;89424;-70
2022/01/30 10:07:01;;;;;;;55.85;32.70;;;23.00;67.60;;;;;;6162015;28;89169;-75
2022/01/30 10:10:09;;;;;;;73.20;39.60;;;23.00;66.40;;;;;;6166248;28;89233;-76
2022/01/30 10:13:14;;;;;;;63.85;33.90;;;23.00;65.70;;;;;;6168457;28;89185;-77
2022/01/30 10:16:16;;;;;;;52.33;29.77;;;23.00;64.40;;;;;;6175248;28;87267;-79
2022/01/30 10:19:22;;;;;;;41.55;24.40;;;23.00;63.50;;;;;;6171318;28;89167;-77
2022/01/30 10:22:24;;;;;;;35.83;21.58;;;23.00;63.00;;;;;;6172199;28;89008;-76
2022/01/30 10:25:27;;;;;;;34.72;18.83;;;23.00;62.60;;;;;;6171226;28;90009;-77
2022/01/30 10:28:31;;;;;;;27.70;17.35;;;23.00;62.20;;;;;;6168814;28;89201;-75
2022/01/30 10:31:34;;;;;;;24.00;14.98;;;23.00;61.80;;;;;;6163994;28;89199;-76
2022/01/30 10:34:40;;;;;;;27.13;15.18;;;23.00;61.60;;;;;;6168207;28;89092;-73
2022/01/30 10:37:43;;;;;;;24.58;13.20;;;23.00;61.50;;;;;;6176695;28;89114;-73
2022/01/30 10:40:53;;;;;;;20.13;12.25;;;23.00;61.20;;;;;;6164020;28;89104;-75
2022/01/30 10:43:57;;;;;;;16.30;10.75;;;23.10;61.00;;;;;;6165627;28;88005;-73
2022/01/30 10:46:59;;;;;;;15.40;9.85;;;23.10;60.90;;;;;;6169963;28;87319;-75
2022/01/30 10:50:08;;;;;;;15.45;10.10;;;23.10;60.60;;;;;;6163901;28;89041;-75
2022/01/30 10:53:19;;;;;;;19.08;9.55;;;23.10;60.30;;;;;;6164502;28;89155;-74
2022/01/30 10:56:24;;;;;;;14.75;8.95;;;23.10;60.10;;;;;;6172809;28;90324;-74
2022/01/30 10:59:26;;;;;;;13.45;8.02;;;23.10;59.90;;;;;;6176438;28;89140;-75
2022/01/30 11:02:29;;;;;;;13.23;7.53;;;23.10;59.70;;;;;;6170363;28;89260;-75
2022/01/30 11:05:51;;;;;;;14.98;7.88;;;23.10;59.60;;;;;;6168275;28;89069;-72
2022/01/30 11:08:54;;;;;;;12.60;7.63;;;23.10;59.40;;;;;;6172079;28;89163;-73
2022/01/30 11:12:01;;;;;;;13.95;7.50;;;23.10;59.30;;;;;;6177403;28;89104;-72
2022/01/30 11:15:20;;;;;;;12.23;7.30;;;23.10;59.10;;;;;;6168586;28;89075;-73
2022/01/30 11:18:22;;;;;;;12.15;7.18;;;23.10;59.00;;;;;;6181887;28;88422;-72
2022/01/30 11:21:28;;;;;;;13.45;6.80;;;23.10;58.80;;;;;;6185273;28;89042;-71
2022/01/30 11:24:33;;;;;;;10.77;6.72;;;23.10;58.70;;;;;;6181939;28;89034;-72
2022/01/30 11:27:36;;;;;;;10.32;6.38;;;23.10;58.70;;;;;;6181332;28;90374;-71
2022/01/30 11:30:38;;;;;;;11.68;6.70;;;23.10;58.90;;;;;;6180661;28;89049;-73
2022/01/30 11:33:41;;;;;;;11.75;6.75;;;23.10;58.80;;;;;;6174090;28;89526;-75
2022/01/30 11:36:48;;;;;;;12.77;7.88;;;23.10;59.10;;;;;;6165585;28;89158;-75
2022/01/30 11:39:52;;;;;;;15.45;8.90;;;23.10;60.10;;;;;;6183080;28;88983;-73
2022/01/30 11:42:54;;;;;;;16.05;8.80;;;23.10;60.80;;;;;;6178661;28;88545;-74
2022/01/30 11:46:13;;;;;;;14.50;8.73;;;23.10;61.10;;;;;;6166136;28;89223;-73
2022/01/30 11:49:16;;;;;;;16.10;8.60;;;23.10;61.20;;;;;;6182285;28;88714;-73
2022/01/30 11:52:20;;;;;;;14.57;9.35;;;23.10;61.40;;;;;;6174429;28;87932;-71
2022/01/30 11:55:56;;;;;;;19.00;9.35;;;23.10;61.60;;;;;;6159662;28;89680;-71
2022/01/30 11:58:59;;;;;;;18.80;9.25;;;23.20;69.60;;;;;;6180447;28;90246;-70
2022/01/30 12:02:22;;;;;;;15.40;8.45;;;23.20;66.60;;;;;;6167476;28;89008;-72
2022/01/30 12:05:35;;;;;;;14.52;8.35;;;23.20;65.60;;;;;;6181938;28;89244;-71
2022/01/30 12:12:09;;;;;;;14.40;8.18;;;23.30;64.10;;;;;;6173049;28;87114;-72
2022/01/30 12:15:35;;;;;;;13.90;7.75;;;23.20;63.30;;;;;;6181161;28;89111;-71
2022/01/30 12:31:52;;;;;;;14.50;7.38;;;23.20;63.70;;;;;;6270602;22;90313;-72
2022/01/30 12:35:03;;;;;;;10.07;6.63;;;23.30;62.80;;;;;;6175555;28;89070;-71
2022/01/30 12:38:05;;;;;;;11.02;7.03;;;23.20;62.80;;;;;;6155730;28;89956;-70
2022/01/30 12:41:18;;;;;;;12.32;6.88;;;23.20;63.00;;;;;;6161247;28;88323;-71
2022/01/30 12:51:29;;;;;;;11.70;6.85;;;23.20;63.00;;;;;;6178283;28;87497;-72
2022/01/30 12:54:37;;;;;;;13.15;7.35;;;23.20;63.20;;;;;;6164300;28;88349;-71
2022/01/30 12:57:41;;;;;;;12.32;6.72;;;23.20;63.20;;;;;;6171013;28;89132;-71
2022/01/30 13:00:43;;;;;;;16.25;6.97;;;23.20;62.90;;;;;;6175234;28;89008;-71
2022/01/30 13:03:45;;;;;;;12.13;6.70;;;23.10;62.90;;;;;;6183518;28;90321;-71
2022/01/30 13:06:50;;;;;;;10.45;6.80;;;23.10;62.80;;;;;;6182392;28;89619;-71
2022/01/30 13:10:04;;;;;;;11.65;7.15;;;23.10;62.90;;;;;;6183845;28;89228;-69
2022/01/30 13:13:08;;;;;;;10.63;6.80;;;23.10;63.30;;;;;;6171017;28;89128;-72
2022/01/30 13:16:11;;;;;;;11.77;6.72;;;23.10;63.20;;;;;;6165139;28;88887;-72
2022/01/30 13:19:15;;;;;;;11.55;6.70;;;23.10;63.10;;;;;;6169307;28;88950;-72
2022/01/30 13:22:29;;;;;;;10.75;6.80;;;23.10;63.00;;;;;;6165625;28;87996;-72
2022/01/30 13:25:31;;;;;;;11.82;7.15;;;23.00;63.00;;;;;;6176659;28;87110;-72
2022/01/30 13:28:33;;;;;;;10.73;6.82;;;23.10;63.00;;;;;;6178371;28;89806;-72
2022/01/30 13:31:37;;;;;;;10.85;6.90;;;23.00;62.90;;;;;;6179002;28;89244;-71
2022/01/30 13:34:40;;;;;;;12.00;7.15;;;23.10;62.90;;;;;;6181599;28;90121;-72
2022/01/30 13:37:45;;;;;;;9.85;6.50;;;23.00;62.80;;;;;;6176096;28;89230;-73
2022/01/30 13:40:52;;;;;;;10.30;6.50;;;23.00;62.70;;;;;;6185768;28;89040;-72
2022/01/30 13:43:57;;;;;;;10.50;6.57;;;23.10;62.70;;;;;;6170985;28;89561;-71
2022/01/30 13:47:03;;;;;;;11.50;6.70;;;23.10;62.70;;;;;;6185863;28;89301;-72
2022/01/30 13:50:15;;;;;;;9.63;6.43;;;23.10;62.60;;;;;;6177247;28;89519;-72
2022/01/30 13:53:28;;;;;;;9.88;6.13;;;23.10;62.40;;;;;;6170054;28;89476;-72
2022/01/30 13:56:30;;;;;;;8.98;6.45;;;23.10;62.30;;;;;;6176185;28;88401;-72
2022/01/30 13:59:33;;;;;;;10.35;6.13;;;23.10;62.30;;;;;;6178110;28;89555;-72
2022/01/30 14:02:36;;;;;;;8.70;6.05;;;23.10;62.20;;;;;;6181871;28;89097;-71
2022/01/30 14:12:09;;;;;;;8.75;5.75;;;23.20;62.00;;;;;;6527585;22;88641;-73
2022/01/30 14:15:13;;;;;;;9.38;5.43;;;23.20;62.00;;;;;;6168474;28;87993;-73
2022/01/30 14:18:18;;;;;;;10.68;5.85;;;23.20;62.00;;;;;;6142412;28;89360;-73
2022/01/30 14:21:24;;;;;;;9.85;5.57;;;23.20;61.90;;;;;;6140231;28;89186;-74
2022/01/30 14:24:28;;;;;;;9.00;5.50;;;23.20;61.90;;;;;;6140372;28;89155;-72
2022/01/30 14:27:35;;;;;;;7.28;5.32;;;23.20;61.90;;;;;;6143730;28;87543;-73
2022/01/30 14:42:36;;;;;;;8.88;5.40;;;23.20;61.00;;;;;;6181996;28;80165;-70
2022/01/30 14:45:39;;;;;;;7.88;5.05;;;23.20;61.80;;;;;;6166578;28;81133;-72
2022/01/30 14:48:43;;;;;;;9.18;5.30;;;23.30;61.80;;;;;;6167183;28;82287;-71
2022/01/30 14:51:46;;;;;;;9.18;4.45;;;23.30;61.60;;;;;;6167079;28;82457;-71
2022/01/30 14:54:48;;;;;;;7.18;4.90;;;23.30;61.30;;;;;;6168015;28;82288;-73
2022/01/30 14:57:53;;;;;;;7.25;4.63;;;23.20;61.00;;;;;;6172029;28;82687;-74
2022/01/30 15:00:57;;;;;;;7.03;4.10;;;23.30;61.10;;;;;;6172588;28;82485;-74
2022/01/30 15:03:59;;;;;;;6.97;4.10;;;23.30;60.60;;;;;;6170481;28;82368;-74
2022/01/30 15:07:02;;;;;;;7.43;4.55;;;23.30;60.60;;;;;;6164187;28;81496;-71
2022/01/30 15:10:05;;;;;;;8.13;4.65;;;23.20;60.40;;;;;;6174592;28;82543;-70
2022/01/30 15:13:12;;;;;;;6.97;3.72;;;23.30;60.30;;;;;;6180879;28;82051;-68
2022/01/30 15:16:21;;;;;;;5.57;3.72;;;23.30;60.30;;;;;;6160518;28;82589;-71
2022/01/30 15:19:23;;;;;;;6.75;4.18;;;23.30;60.20;;;;;;6167239;28;82311;-71
2022/01/30 15:22:25;;;;;;;6.97;3.97;;;23.30;60.40;;;;;;6165216;28;82283;-71
2022/01/30 15:25:27;;;;;;;7.18;3.90;;;23.30;60.30;;;;;;6176523;28;81244;-71
2022/01/30 15:28:31;;;;;;;5.35;3.55;;;23.30;60.10;;;;;;6183816;28;82488;-70
2022/01/30 15:31:33;;;;;;;5.50;3.50;;;23.30;60.00;;;;;;6156644;28;82830;-72
2022/01/30 15:34:35;;;;;;;4.88;3.40;;;23.30;60.00;;;;;;6177234;28;82334;-69
2022/01/30 15:37:37;;;;;;;5.63;3.45;;;23.30;59.90;;;;;;6178922;28;82257;-70
2022/01/30 15:40:39;;;;;;;6.57;3.60;;;23.30;59.90;;;;;;6168103;28;82414;-72
2022/01/30 15:43:42;;;;;;;6.22;3.50;;;23.30;60.60;;;;;;6154806;28;82639;-70
2022/01/30 15:50:06;;;;;;;4.95;3.25;;;23.30;59.90;;;;;;6153122;28;80592;-69
2022/01/30 15:53:08;;;;;;;5.47;3.67;;;23.30;60.00;;;;;;6143664;28;82329;-68
2022/01/30 15:56:10;;;;;;;5.20;3.67;;;23.30;60.30;;;;;;6142485;28;82327;-70
2022/01/30 15:59:14;;;;;;;5.13;3.50;;;23.30;60.30;;;;;;6152956;28;84238;-70
2022/01/30 16:06:10;;;;;;;5.88;3.70;;;23.30;60.50;;;;;;7067674;23;82253;-68
2022/01/30 16:09:15;;;;;;;5.85;3.78;;;23.30;60.60;;;;;;6086486;28;81562;-69
2022/01/30 16:12:34;;;;;;;5.70;3.65;;;23.30;60.50;;;;;;6082309;28;82307;-68
2022/01/30 16:15:38;;;;;;;5.63;3.92;;;23.30;60.60;;;;;;6072127;28;82559;-68
2022/01/30 16:18:40;;;;;;;5.65;3.55;;;23.30;60.80;;;;;;6077328;28;81637;-69
2022/01/30 16:21:42;;;;;;;5.72;3.72;;;23.30;60.80;;;;;;6071926;28;82430;-69
2022/01/30 16:24:44;;;;;;;5.28;3.67;;;23.30;61.10;;;;;;6077631;28;81485;-69
2022/01/30 16:27:46;;;;;;;6.00;3.90;;;23.30;61.30;;;;;;6081356;28;82298;-69
2022/01/30 16:30:50;;;;;;;6.35;3.83;;;23.30;61.40;;;;;;6077035;28;82269;-69
2022/01/30 16:33:52;;;;;;;7.30;3.90;;;23.30;61.50;;;;;;6069224;28;82368;-69
2022/01/30 16:36:54;;;;;;;5.65;3.58;;;23.40;61.80;;;;;;6078919;28;82319;-69
2022/01/30 16:39:56;;;;;;;6.65;3.80;;;23.20;61.80;;;;;;6083329;28;82330;-69
2022/01/30 16:42:58;;;;;;;7.03;3.88;;;23.30;62.00;;;;;;6090162;28;82591;-68
2022/01/30 16:46:20;;;;;;;5.05;3.50;;;23.30;62.20;;;;;;6092158;28;82374;-68
2022/01/30 16:49:22;;;;;;;5.50;3.55;;;23.20;62.20;;;;;;6074158;28;81220;-69
2022/01/30 16:52:24;;;;;;;5.88;3.65;;;23.20;62.50;;;;;;6071527;28;81170;-68
2022/01/30 16:55:29;;;;;;;5.22;3.55;;;23.20;62.60;;;;;;6083814;28;82364;-69
2022/01/30 16:58:31;;;;;;;5.38;3.38;;;23.10;62.70;;;;;;6070083;28;82454;-69
2022/01/30 17:01:34;;;;;;;5.60;3.53;;;23.10;62.90;;;;;;6091370;28;82352;-69
2022/01/30 17:04:36;;;;;;;5.80;3.60;;;23.10;63.10;;;;;;6089531;28;81381;-68
2022/01/30 17:07:38;;;;;;;5.57;3.45;;;23.10;63.30;;;;;;6091324;28;82466;-69
2022/01/30 17:10:42;;;;;;;5.25;3.35;;;23.10;63.50;;;;;;6088634;28;82574;-68
2022/01/30 17:13:44;;;;;;;5.18;3.47;;;23.10;63.70;;;;;;6086476;28;82456;-68
2022/01/30 17:16:48;;;;;;;6.43;3.40;;;23.00;63.70;;;;;;6074614;28;82737;-70
2022/01/30 17:19:50;;;;;;;5.93;3.50;;;23.00;64.00;;;;;;6078289;28;81526;-69
2022/01/30 17:22:52;;;;;;;5.85;3.50;;;23.10;64.50;;;;;;6076697;28;82595;-70
2022/01/30 17:25:56;;;;;;;6.15;3.60;;;23.00;65.70;;;;;;6089236;28;82300;-73